createdAt,value
2023-04-16T00:00:46.368Z,28.30
2023-04-16T00:03:14.229Z,24.20
2023-04-16T00:05:43.452Z,29.23
2023-04-16T00:08:11.200Z,27.50
2023-04-16T00:10:38.882Z,28.07
2023-04-16T00:13:06.525Z,27.60
2023-04-16T00:15:34.273Z,27.43
2023-04-16T00:18:01.968Z,27.63
2023-04-16T00:20:29.652Z,27.50
2023-04-16T00:22:59.178Z,30.07
2023-04-16T00:25:26.910Z,30.30
2023-04-16T00:27:54.694Z,25.30
2023-04-16T00:30:22.475Z,28.77
2023-04-16T00:32:50.226Z,29.37
2023-04-16T00:35:18.174Z,29.57
2023-04-16T00:37:45.974Z,27.30
2023-04-16T00:40:15.167Z,34.07
2023-04-16T00:42:42.911Z,28.37
2023-04-16T00:45:12.312Z,26.33
2023-04-16T00:47:40.338Z,30.83
2023-04-16T00:50:08.988Z,27.43
2023-04-16T00:52:36.892Z,27.70
2023-04-16T00:55:05.566Z,26.30
2023-04-16T00:57:34.621Z,27.40
2023-04-16T01:00:02.736Z,26.87
2023-04-16T01:02:30.592Z,27.50
2023-04-16T01:04:58.565Z,26.67
2023-04-16T01:07:26.221Z,24.23
2023-04-16T01:09:53.974Z,24.40
2023-04-16T01:12:21.627Z,26.40
2023-04-16T01:14:50.876Z,25.63
2023-04-16T01:17:18.547Z,23.90
2023-04-16T01:19:46.236Z,22.97
2023-04-16T01:22:15.447Z,24.10
2023-04-16T01:24:43.185Z,22.40
2023-04-16T01:27:10.928Z,22.63
2023-04-16T01:29:38.669Z,23.80
2023-04-16T01:32:06.568Z,23.80
2023-04-16T01:34:34.254Z,25.57
2023-04-16T01:37:02.002Z,25.93
2023-04-16T01:39:31.067Z,22.17
2023-04-16T01:41:58.789Z,21.87
2023-04-16T01:44:26.473Z,25.13
2023-04-16T01:46:54.632Z,24.23
2023-04-16T01:49:22.370Z,27.63
2023-04-16T01:51:50.111Z,23.87
2023-04-16T01:54:17.813Z,23.80
2023-04-16T01:56:46.886Z,21.60
2023-04-16T01:59:14.608Z,23.83
2023-04-16T02:01:43.322Z,23.90
2023-04-16T02:04:11.736Z,26.13
2023-04-16T02:06:40.821Z,23.73
2023-04-16T02:09:08.610Z,23.03
2023-04-16T02:11:36.367Z,23.40
2023-04-16T02:14:05.394Z,25.03
2023-04-16T02:16:33.161Z,24.33
2023-04-16T02:19:00.845Z,21.70
2023-04-16T02:21:28.611Z,21.87
2023-04-16T02:23:56.320Z,18.87
2023-04-16T02:26:23.980Z,24.10
2023-04-16T02:28:51.865Z,20.87
2023-04-16T02:31:22.402Z,23.77
2023-04-16T02:33:50.099Z,20.23
2023-04-16T02:36:17.812Z,22.70
2023-04-16T02:38:45.503Z,22.13
2023-04-16T02:41:13.675Z,22.83
2023-04-16T02:43:41.512Z,20.93
2023-04-16T02:46:09.439Z,22.93
2023-04-16T02:48:38.560Z,20.97
2023-04-16T02:51:06.906Z,24.87
2023-04-16T02:53:34.674Z,22.63
2023-04-16T02:56:02.414Z,20.10
2023-04-16T02:58:30.146Z,21.83
2023-04-16T03:00:57.851Z,25.13
2023-04-16T03:03:25.582Z,22.47
2023-04-16T03:05:54.670Z,20.53
2023-04-16T03:08:22.541Z,20.40
2023-04-16T03:10:50.275Z,19.63
2023-04-16T03:13:17.978Z,19.63
2023-04-16T03:15:49.415Z,21.43
2023-04-16T03:18:17.233Z,21.90
2023-04-16T03:20:44.948Z,21.67
2023-04-16T03:23:13.968Z,22.87
2023-04-16T03:25:43.590Z,25.30
2023-04-16T03:28:11.370Z,22.50
2023-04-16T03:30:39.075Z,22.13
2023-04-16T03:33:06.815Z,22.63
2023-04-16T03:35:34.734Z,24.20
2023-04-16T03:38:02.582Z,22.77
2023-04-16T03:40:31.693Z,25.03
2023-04-16T03:42:59.383Z,26.40
2023-04-16T03:45:27.074Z,23.23
2023-04-16T03:47:54.826Z,26.57
2023-04-16T03:50:22.802Z,25.90
2023-04-16T03:52:50.494Z,24.97
2023-04-16T03:55:18.347Z,24.20
2023-04-16T03:57:47.447Z,27.47
2023-04-16T04:00:15.449Z,24.87
2023-04-16T04:02:43.319Z,27.77
2023-04-16T04:05:11.378Z,22.17
2023-04-16T04:07:39.109Z,26.13
2023-04-16T04:10:08.206Z,25.30
2023-04-16T04:12:35.908Z,27.67
2023-04-16T04:15:05.648Z,27.90
2023-04-16T04:17:33.318Z,25.33
2023-04-16T04:20:02.069Z,27.40
2023-04-16T04:22:29.970Z,22.17
2023-04-16T04:24:57.836Z,27.57
2023-04-16T04:27:25.661Z,28.50
2023-04-16T04:29:53.365Z,27.77
2023-04-16T04:32:22.431Z,26.50
2023-04-16T04:34:50.370Z,25.20
2023-04-16T04:37:18.073Z,25.57
2023-04-16T04:39:45.816Z,31.63
2023-04-16T04:42:13.646Z,26.43
2023-04-16T04:44:41.364Z,28.60
2023-04-16T04:47:09.284Z,26.43
2023-04-16T04:49:38.384Z,26.00
2023-04-16T04:52:06.100Z,24.43
2023-04-16T04:54:34.406Z,28.77
2023-04-16T04:57:02.422Z,26.53
2023-04-16T04:59:30.194Z,25.03
2023-04-16T05:01:57.882Z,23.90
2023-04-16T05:04:25.607Z,27.47
2023-04-16T05:06:54.676Z,28.07
2023-04-16T05:09:22.430Z,26.83
2023-04-16T05:11:50.405Z,29.33
2023-04-16T05:14:18.169Z,26.93
2023-04-16T05:16:46.038Z,24.37
2023-04-16T05:19:13.788Z,22.57
2023-04-16T05:21:41.525Z,22.13
2023-04-16T05:24:11.624Z,24.93
2023-04-16T05:26:40.301Z,26.40
2023-04-16T05:29:08.315Z,25.20
2023-04-16T05:31:36.399Z,24.07
2023-04-16T05:34:04.121Z,25.77
2023-04-16T05:36:31.833Z,24.90
2023-04-16T05:38:59.536Z,24.93
2023-04-16T05:41:28.742Z,28.67
2023-04-16T05:43:56.449Z,28.10
2023-04-16T05:46:24.342Z,28.30
2023-04-16T05:48:52.341Z,27.00
2023-04-16T05:51:20.158Z,24.53
2023-04-16T05:53:47.966Z,31.07
2023-04-16T05:56:15.666Z,26.70
2023-04-16T05:58:44.757Z,26.07
2023-04-16T06:01:12.594Z,26.20
2023-04-16T06:03:40.457Z,25.90
2023-04-16T06:06:08.944Z,25.90
2023-04-16T06:08:36.603Z,26.53
2023-04-16T06:11:04.919Z,28.43
2023-04-16T06:13:32.680Z,25.87
2023-04-16T06:16:01.909Z,25.23
2023-04-16T06:18:29.672Z,28.93
2023-04-16T06:20:58.839Z,28.57
2023-04-16T06:23:26.706Z,26.10
2023-04-16T06:25:54.504Z,31.57
2023-04-16T06:28:22.378Z,28.00
2023-04-16T06:30:50.158Z,32.27
2023-04-16T06:33:19.486Z,24.57
2023-04-16T06:35:47.173Z,27.07
2023-04-16T06:38:15.551Z,28.70
2023-04-16T06:40:43.305Z,27.37
2023-04-16T06:43:11.086Z,24.17
2023-04-16T06:45:38.829Z,24.20
2023-04-16T06:48:06.871Z,24.83
2023-04-16T06:50:36.054Z,24.37
2023-04-16T06:53:03.890Z,25.57
2023-04-16T06:55:31.586Z,23.80
2023-04-16T06:57:59.314Z,31.00
2023-04-16T07:00:27.001Z,27.27
2023-04-16T07:02:57.115Z,24.20
2023-04-16T07:05:26.211Z,25.37
2023-04-16T07:07:56.777Z,26.07
2023-04-16T07:10:24.766Z,26.67
2023-04-16T07:12:52.610Z,25.43
2023-04-16T07:15:20.326Z,23.83
2023-04-16T07:17:48.068Z,25.83
2023-04-16T07:20:15.964Z,24.40
2023-04-16T07:22:43.680Z,27.60
2023-04-16T07:25:12.892Z,24.27
2023-04-16T07:27:40.595Z,22.40
2023-04-16T07:30:09.556Z,27.20
2023-04-16T07:32:37.443Z,22.23
2023-04-16T07:35:05.654Z,27.40
2023-04-16T07:37:33.337Z,24.70
2023-04-16T07:40:01.035Z,25.83
2023-04-16T07:42:30.192Z,22.67
2023-04-16T07:44:57.906Z,25.40
2023-04-16T07:47:26.502Z,26.63
2023-04-16T07:49:54.234Z,24.30
2023-04-16T07:52:21.983Z,25.07
2023-04-16T07:54:49.692Z,23.03
2023-04-16T07:57:17.443Z,24.90
2023-04-16T07:59:46.510Z,26.27
2023-04-16T08:02:16.459Z,21.93
2023-04-16T08:04:45.238Z,22.07
2023-04-16T08:07:13.232Z,25.87
2023-04-16T08:09:49.439Z,23.07
2023-04-16T08:12:17.492Z,21.40
2023-04-16T08:14:46.858Z,22.07
2023-04-16T08:17:15.301Z,22.33
2023-04-16T08:19:43.872Z,23.50
2023-04-16T08:22:12.274Z,22.97
2023-04-16T08:24:40.012Z,23.53
2023-04-16T08:27:17.937Z,27.50
2023-04-16T08:29:48.344Z,22.60
2023-04-16T08:32:16.158Z,22.60
2023-04-16T08:34:44.043Z,23.33
2023-04-16T08:37:11.925Z,20.30
2023-04-16T08:39:39.836Z,21.90
2023-04-16T08:42:14.104Z,19.97
2023-04-16T08:44:49.335Z,19.57
2023-04-16T08:47:18.939Z,19.77
2023-04-16T08:49:46.969Z,19.20
2023-04-16T08:52:19.593Z,17.73
2023-04-16T08:54:56.920Z,18.33
2023-04-16T08:57:27.887Z,19.40
2023-04-16T08:59:56.958Z,20.77
2023-04-16T09:02:27.492Z,18.30
2023-04-16T09:04:57.310Z,19.00
2023-04-16T09:07:26.913Z,21.00
2023-04-16T09:09:55.700Z,19.37
2023-04-16T09:12:25.063Z,21.57
2023-04-16T09:14:52.849Z,19.30
2023-04-16T09:17:20.771Z,20.57
2023-04-16T09:19:49.964Z,19.57
2023-04-16T09:22:17.953Z,16.67
2023-04-16T09:24:45.666Z,17.67
2023-04-16T09:27:13.896Z,19.20
2023-04-16T09:29:42.801Z,17.40
2023-04-16T09:32:12.522Z,19.73
2023-04-16T09:37:33.487Z,19.07
2023-04-16T09:40:02.490Z,17.43
2023-04-16T09:42:32.217Z,18.83
2023-04-16T09:45:04.263Z,20.07
2023-04-16T09:47:43.921Z,19.67
2023-04-16T09:50:18.270Z,20.83
2023-04-16T09:52:50.177Z,18.83
2023-04-16T09:55:19.125Z,17.83
2023-04-16T09:57:46.764Z,17.67
2023-04-16T10:00:19.439Z,18.57
2023-04-16T10:02:49.181Z,18.67
2023-04-16T10:05:21.124Z,22.90
2023-04-16T10:07:51.020Z,17.73
2023-04-16T10:10:18.922Z,16.70
2023-04-16T10:12:46.663Z,18.37
2023-04-16T10:15:14.470Z,16.57
2023-04-16T10:17:42.341Z,19.07
2023-04-16T10:20:11.065Z,17.03
2023-04-16T10:22:39.111Z,20.30
2023-04-16T10:25:08.955Z,18.67
2023-04-16T10:27:37.996Z,17.80
2023-04-16T10:30:08.450Z,16.60
2023-04-16T10:32:37.963Z,18.43
2023-04-16T10:35:06.848Z,16.27
2023-04-16T10:37:34.558Z,13.30
2023-04-16T10:40:02.246Z,17.53
2023-04-16T10:42:32.540Z,16.57
2023-04-16T10:45:00.834Z,16.63
2023-04-16T10:47:30.455Z,14.97
2023-04-16T10:49:59.255Z,14.83
2023-04-16T10:52:30.468Z,19.73
2023-04-16T10:55:00.845Z,18.50
2023-04-16T10:57:31.807Z,14.77
2023-04-16T10:59:59.932Z,13.90
2023-04-16T11:02:30.602Z,15.90
2023-04-16T11:04:58.846Z,14.33
2023-04-16T11:07:34.430Z,16.50
2023-04-16T11:10:05.255Z,17.63
2023-04-16T11:12:37.705Z,15.87
2023-04-16T11:15:07.805Z,14.23
2023-04-16T11:17:38.962Z,17.47
2023-04-16T11:20:17.509Z,15.00
2023-04-16T11:22:48.096Z,18.37
2023-04-16T11:25:20.902Z,16.07
2023-04-16T11:27:49.910Z,15.67
2023-04-16T11:30:18.570Z,15.87
2023-04-16T11:32:47.479Z,18.53
2023-04-16T11:35:18.085Z,17.43
2023-04-16T11:37:46.795Z,14.20
2023-04-16T11:40:14.840Z,15.00
2023-04-16T11:42:44.182Z,15.77
2023-04-16T11:45:13.477Z,16.57
2023-04-16T11:47:45.620Z,17.27
2023-04-16T11:50:21.916Z,15.40
2023-04-16T11:52:50.071Z,16.03
2023-04-16T11:55:18.060Z,14.53
2023-04-16T11:57:46.538Z,17.47
2023-04-16T12:00:16.593Z,18.47
2023-04-16T12:02:45.619Z,16.93
2023-04-16T12:05:31.864Z,15.60
2023-04-16T12:08:00.672Z,17.60
2023-04-16T12:10:28.544Z,17.73
2023-04-16T12:12:56.722Z,17.07
2023-04-16T12:15:44.624Z,15.87
2023-04-16T12:18:12.292Z,16.37
2023-04-16T12:20:42.147Z,16.83
2023-04-16T12:23:10.104Z,21.07
2023-04-16T12:25:37.862Z,16.90
2023-04-16T12:28:06.233Z,17.47
2023-04-16T12:30:35.389Z,17.47
2023-04-16T12:33:16.659Z,16.37
2023-04-16T12:35:44.999Z,15.67
2023-04-16T12:38:15.034Z,16.23
2023-04-16T12:40:42.746Z,16.13
2023-04-16T12:43:10.674Z,15.00
2023-04-16T12:45:40.397Z,16.67
2023-04-16T12:48:08.417Z,17.10
2023-04-16T12:50:36.212Z,16.60
2023-04-16T12:53:03.840Z,18.30
2023-04-16T12:55:31.452Z,15.03
2023-04-16T12:57:59.081Z,15.80
2023-04-16T13:00:26.725Z,17.97
2023-04-16T13:02:56.082Z,18.23
2023-04-16T13:05:23.757Z,14.53
2023-04-16T13:07:51.492Z,18.00
2023-04-16T13:10:19.300Z,17.40
2023-04-16T13:12:46.992Z,15.53
2023-04-16T13:15:14.654Z,16.93
2023-04-16T13:17:42.252Z,21.43
2023-04-16T13:20:11.975Z,18.13
2023-04-16T13:22:40.190Z,20.63
2023-04-16T13:25:09.450Z,18.17
2023-04-16T13:27:37.025Z,20.57
2023-04-16T13:30:05.050Z,19.03
2023-04-16T13:32:32.733Z,15.77
2023-04-16T13:35:00.355Z,16.57
2023-04-16T13:37:29.343Z,16.10
2023-04-16T13:39:57.300Z,15.20
2023-04-16T13:42:24.972Z,13.90
2023-04-16T13:44:55.027Z,16.90
2023-04-16T13:47:22.903Z,14.33
2023-04-16T13:49:50.615Z,16.03
2023-04-16T13:52:18.264Z,15.57
2023-04-16T13:54:47.205Z,20.07
2023-04-16T13:57:14.871Z,17.40
2023-04-16T13:59:42.509Z,18.00
2023-04-16T14:02:11.411Z,17.27
2023-04-16T14:04:39.018Z,16.77
2023-04-16T14:07:06.601Z,15.87
2023-04-16T14:09:34.201Z,16.63
2023-04-16T14:12:03.210Z,18.47
2023-04-16T14:14:31.166Z,15.40
2023-04-16T14:16:59.181Z,16.13
2023-04-16T14:19:26.884Z,15.93
2023-04-16T14:21:54.485Z,16.13
2023-04-16T14:24:22.109Z,16.67
2023-04-16T14:26:49.717Z,17.90
2023-04-16T14:29:18.708Z,16.47
2023-04-16T14:31:46.533Z,19.20
2023-04-16T14:34:14.153Z,17.53
2023-04-16T14:36:42.004Z,16.37
2023-04-16T14:39:10.511Z,18.70
2023-04-16T14:41:38.334Z,19.67
2023-04-16T14:44:06.770Z,17.57
2023-04-16T14:46:36.092Z,18.17
2023-04-16T14:49:03.983Z,17.10
2023-04-16T14:51:31.994Z,18.27
2023-04-16T14:53:59.619Z,16.23
2023-04-16T14:56:27.205Z,19.30
2023-04-16T14:58:54.947Z,19.07
2023-04-16T15:01:22.633Z,18.03
2023-04-16T15:03:51.716Z,15.30
2023-04-16T15:06:19.494Z,23.27
2023-04-16T15:08:47.129Z,17.90
2023-04-16T15:11:14.712Z,19.97
2023-04-16T15:13:42.323Z,20.80
2023-04-16T15:16:09.948Z,22.67
2023-04-16T15:18:37.561Z,21.90
2023-04-16T15:21:06.632Z,18.40
2023-04-16T15:23:34.266Z,20.73
2023-04-16T15:26:01.852Z,18.10
2023-04-16T15:28:29.434Z,20.23
2023-04-16T15:30:57.575Z,21.27
2023-04-16T15:33:26.278Z,18.37
2023-04-16T15:35:53.914Z,17.23
2023-04-16T15:38:22.853Z,17.90
2023-04-16T15:40:50.815Z,18.83
2023-04-16T15:43:18.476Z,16.40
2023-04-16T15:45:46.148Z,18.00
2023-04-16T15:48:14.311Z,16.73
2023-04-16T15:50:42.049Z,18.17
2023-04-16T15:53:09.912Z,20.70
2023-04-16T15:55:38.978Z,18.77
2023-04-16T15:58:06.708Z,18.87
2023-04-16T16:00:34.405Z,19.70
2023-04-16T16:03:02.306Z,17.90
2023-04-16T16:05:30.293Z,17.20
2023-04-16T16:07:58.720Z,20.10
2023-04-16T16:10:26.586Z,18.67
2023-04-16T16:12:57.244Z,18.87
2023-04-16T16:15:24.993Z,19.30
2023-04-16T16:17:53.545Z,19.23
2023-04-16T16:20:22.623Z,18.87
2023-04-16T16:22:52.953Z,19.27
2023-04-16T16:25:21.383Z,20.33
2023-04-16T16:27:49.162Z,17.03
2023-04-16T16:30:18.479Z,20.70
2023-04-16T16:32:46.288Z,20.57
2023-04-16T16:35:14.244Z,20.20
2023-04-16T16:37:42.323Z,17.67
2023-04-16T16:40:11.274Z,18.07
2023-04-16T16:42:39.099Z,20.03
2023-04-16T16:45:07.817Z,18.60
2023-04-16T16:47:38.878Z,20.27
2023-04-16T16:50:07.980Z,16.70
2023-04-16T16:52:35.776Z,19.87
2023-04-16T16:55:04.056Z,19.57
2023-04-16T16:57:31.803Z,19.50
2023-04-16T16:59:59.578Z,20.00
2023-04-16T17:02:27.489Z,19.73
2023-04-16T17:04:58.970Z,19.60
2023-04-16T17:07:27.390Z,20.63
2023-04-16T17:09:55.182Z,20.60
2023-04-16T17:12:23.641Z,22.87
2023-04-16T17:14:52.150Z,18.90
2023-04-16T17:17:20.026Z,18.93
2023-04-16T17:19:47.745Z,19.63
2023-04-16T17:22:16.895Z,19.20
2023-04-16T17:24:44.692Z,20.23
2023-04-16T17:27:12.487Z,18.93
2023-04-16T17:29:40.225Z,24.20
2023-04-16T17:32:08.052Z,19.87
2023-04-16T17:34:36.145Z,18.63
2023-04-16T17:37:03.889Z,18.43
2023-04-16T17:39:33.108Z,18.30
2023-04-16T17:42:03.014Z,17.73
2023-04-16T17:44:30.729Z,17.60
2023-04-16T17:46:58.494Z,19.03
2023-04-16T17:49:26.281Z,17.77
2023-04-16T17:51:55.160Z,19.50
2023-04-16T17:54:22.920Z,20.67
2023-04-16T17:56:52.058Z,19.40
2023-04-16T17:59:20.209Z,19.77
2023-04-16T18:01:49.508Z,20.73
2023-04-16T18:04:17.720Z,17.13
2023-04-16T18:06:45.897Z,20.77
2023-04-16T18:09:14.316Z,23.97
2023-04-16T18:11:42.125Z,16.50
2023-04-16T18:14:13.450Z,17.63
2023-04-16T18:16:41.822Z,17.83
2023-04-16T18:19:09.637Z,19.57
2023-04-16T18:21:37.434Z,17.90
2023-04-16T18:24:05.430Z,16.67
2023-04-16T18:26:35.707Z,17.73
2023-04-16T18:29:04.062Z,18.73
2023-04-16T18:31:33.276Z,20.70
2023-04-16T18:34:01.162Z,17.23
2023-04-16T18:36:28.898Z,16.43
2023-04-16T18:39:02.127Z,17.27
2023-04-16T18:41:30.752Z,18.40
2023-04-16T18:43:58.678Z,18.40
2023-04-16T18:46:27.378Z,20.93
2023-04-16T18:48:56.765Z,18.47
2023-04-16T18:51:24.967Z,17.97
2023-04-16T18:53:52.828Z,18.07
2023-04-16T18:56:20.852Z,18.63
2023-04-16T18:58:49.344Z,21.13
2023-04-16T19:01:17.938Z,20.23
2023-04-16T19:03:46.187Z,19.53
2023-04-16T19:06:15.474Z,18.27
2023-04-16T19:08:43.340Z,16.73
2023-04-16T19:11:11.114Z,22.13
2023-04-16T19:13:39.296Z,19.53
2023-04-16T19:16:11.445Z,20.67
2023-04-16T19:18:39.736Z,16.57
2023-04-16T19:21:07.620Z,19.53
2023-04-16T19:23:36.860Z,23.63
2023-04-16T19:26:04.725Z,19.43
2023-04-16T19:28:32.510Z,19.90
2023-04-16T19:31:00.407Z,19.47
2023-04-16T19:33:28.182Z,22.87
2023-04-16T19:35:56.042Z,19.93
2023-04-16T19:38:23.752Z,20.30
2023-04-16T19:40:52.909Z,21.03
2023-04-16T19:43:20.660Z,21.33
2023-04-16T19:45:52.422Z,19.27
2023-04-16T19:48:20.429Z,21.90
2023-04-16T19:50:48.482Z,20.03
2023-04-16T19:53:17.125Z,21.27
2023-04-16T19:55:45.056Z,20.77
2023-04-16T19:58:14.686Z,21.43
2023-04-16T20:00:43.167Z,21.67
2023-04-16T20:03:11.224Z,22.67
2023-04-16T20:05:39.104Z,17.77
2023-04-16T20:08:07.485Z,19.97
2023-04-16T20:10:45.144Z,19.13
2023-04-16T20:13:16.728Z,23.03
2023-04-16T20:15:47.237Z,22.37
2023-04-16T20:18:15.380Z,21.90
2023-04-16T20:20:43.139Z,19.70
2023-04-16T20:23:10.893Z,21.73
2023-04-16T20:25:42.144Z,19.93
2023-04-16T20:28:10.102Z,24.03
2023-04-16T20:30:39.701Z,24.63
2023-04-16T20:33:10.638Z,19.93
2023-04-16T20:35:38.377Z,21.03
2023-04-16T20:38:06.158Z,23.60
2023-04-16T20:40:34.040Z,21.47
2023-04-16T20:43:01.768Z,19.70
2023-04-16T20:45:32.160Z,21.60
2023-04-16T20:48:01.694Z,24.57
2023-04-16T20:50:29.498Z,23.13
2023-04-16T20:52:57.408Z,21.10
2023-04-16T20:55:25.612Z,21.47
2023-04-16T20:57:53.399Z,24.83
2023-04-16T21:00:22.352Z,25.20
2023-04-16T21:02:50.220Z,22.20
2023-04-16T21:05:21.354Z,22.57
2023-04-16T21:07:49.210Z,23.43
2023-04-16T21:10:20.294Z,21.70
2023-04-16T21:12:48.209Z,22.13
2023-04-16T21:15:16.254Z,21.20
2023-04-16T21:17:44.278Z,22.73
2023-04-16T21:20:13.656Z,21.80
2023-04-16T21:22:42.921Z,24.40
2023-04-16T21:25:11.147Z,19.17
2023-04-16T21:27:38.812Z,21.57
2023-04-16T21:30:07.643Z,24.07
2023-04-16T21:32:35.391Z,26.20
2023-04-16T21:35:03.729Z,22.67
2023-04-16T21:37:31.408Z,22.93
2023-04-16T21:40:00.514Z,20.40
2023-04-16T21:42:28.202Z,20.73
2023-04-16T21:44:55.926Z,19.50
2023-04-16T21:47:23.741Z,21.13
2023-04-16T21:49:51.516Z,22.17
2023-04-16T21:52:19.286Z,24.40
2023-04-16T21:54:47.454Z,20.03
2023-04-16T21:57:16.539Z,25.73
2023-04-16T21:59:44.253Z,21.50
2023-04-16T22:02:12.071Z,24.87
2023-04-16T22:04:40.067Z,22.53
2023-04-16T22:07:09.085Z,24.23
2023-04-16T22:09:37.220Z,22.93
2023-04-16T22:12:07.061Z,25.57
2023-04-16T22:14:38.371Z,25.80
2023-04-16T22:17:09.368Z,27.07
2023-04-16T22:19:37.298Z,24.27
2023-04-16T22:22:05.377Z,24.40
2023-04-16T22:24:33.140Z,26.30
2023-04-16T22:27:01.449Z,26.47
2023-04-16T22:29:29.173Z,25.67
2023-04-16T22:31:58.435Z,22.53
2023-04-16T22:34:26.195Z,23.17
2023-04-16T22:36:53.927Z,22.53
2023-04-16T22:39:21.698Z,25.90
2023-04-16T22:41:49.505Z,25.07
2023-04-16T22:44:17.198Z,26.57
2023-04-16T22:46:45.363Z,22.20
2023-04-16T22:49:14.432Z,26.20
2023-04-16T22:51:42.566Z,22.30
2023-04-16T22:54:13.646Z,21.00
2023-04-16T22:56:42.250Z,21.23
2023-04-16T22:59:10.400Z,23.47
2023-04-16T23:01:38.591Z,23.37
2023-04-16T23:04:06.605Z,24.40
2023-04-16T23:06:35.682Z,22.30
2023-04-16T23:09:05.056Z,22.50
2023-04-16T23:11:32.842Z,25.20
2023-04-16T23:14:00.637Z,23.53
2023-04-16T23:16:28.761Z,22.00
2023-04-16T23:18:56.664Z,19.40
2023-04-16T23:21:24.357Z,17.87
2023-04-16T23:23:53.506Z,21.00
2023-04-16T23:26:21.164Z,22.50
2023-04-16T23:28:48.861Z,22.30
2023-04-16T23:31:16.698Z,19.27
2023-04-16T23:33:44.430Z,20.43
2023-04-16T23:36:12.215Z,20.50
2023-04-16T23:38:40.027Z,23.00
2023-04-16T23:41:09.090Z,22.77
2023-04-16T23:43:36.844Z,21.67
2023-04-16T23:46:04.809Z,22.97
2023-04-16T23:48:32.593Z,19.60
2023-04-16T23:51:00.515Z,19.63
2023-04-16T23:53:28.317Z,19.73
2023-04-16T23:55:56.019Z,21.27
2023-04-16T23:58:25.057Z,19.00
